Terminal Aerodrome Forecast
Issued by NWS Medford, OR

Home | Current Version | Previous Version | Text Only | Print | Product List | Glossary On
Versions: 1 2 3 4 5 6 7 8 9 10 11 12 13
000
FTUS46 KMFR 202345
TAFMFR
TAF
KMFR 202345Z 2100/2124 26008KT P6SM BKN050 OVC090
     FM210900 14005KT P6SM -RA BKN030 OVC050
     FM211400 15005KT P6SM -RA SCT030 OVC050
     FM212100 23010KT P6SM VCSH SCT030 OVC050=

USA.gov is the U.S. government's official web portal to all federal, state and local government web resources and services.